Time;durP1;ratioP1;P1;durP2;ratioP2;P2;SDS_P1;SDS_P2;PMS_P1;PMS_P2;Temp;Humidity;BMP_temperature;BMP_pressure;BME280_temperature;BME280_humidity;BME280_pressure;Samples;Min_cycle;Max_cycle;Signal;HPM_P1;HPM_P2
2022/03/26 00:02:08;;;;;;;;;;;;;;;17.63;55.49;102119.25;5025889;28;2359;-32
2022/03/26 00:04:39;;;;;;;;;;;;;;;17.61;55.00;102129.19;5025015;28;1808;-33
2022/03/26 00:07:09;;;;;;;;;;;;;;;17.59;54.94;102123.94;5034245;28;1542;-33
2022/03/26 00:09:37;;;;;;;;;;;;;;;17.58;54.84;102116.84;5020334;28;1786;-32
2022/03/26 00:12:08;;;;;;;;;;;;;;;17.58;54.63;102132.91;5026192;28;1985;-32
2022/03/26 00:14:35;;;;;;;;;;;;;;;17.60;54.08;102132.81;5022673;28;1417;-32
2022/03/26 00:17:04;;;;;;;;;;;;;;;17.56;54.25;102132.13;5030442;28;1640;-33
2022/03/26 00:19:34;;;;;;;;;;;;;;;17.56;55.38;102131.28;5036822;28;1690;-32
2022/03/26 00:22:06;;;;;;;;;;;;;;;17.55;55.37;102117.06;5032972;28;1781;-32
2022/03/26 00:24:32;;;;;;;;;;;;;;;17.54;55.08;102120.66;5034179;28;2075;-32
2022/03/26 00:27:00;;;;;;;;;;;;;;;17.53;54.82;102120.75;5028426;28;1587;-33
2022/03/26 00:29:27;;;;;;;;;;;;;;;17.54;55.38;102125.16;5035496;28;1836;-32
2022/03/26 00:32:02;;;;;;;;;;;;;;;17.53;54.40;102131.44;5029485;28;1898;-33
2022/03/26 00:34:32;;;;;;;;;;;;;;;17.49;55.13;102118.28;5023292;28;1782;-33
2022/03/26 00:37:01;;;;;;;;;;;;;;;17.50;55.27;102116.47;5027584;28;1856;-32
2022/03/26 00:39:31;;;;;;;;;;;;;;;17.49;54.19;102120.94;5018082;28;1693;-32
2022/03/26 00:42:01;;;;;;;;;;;;;;;17.46;55.88;102117.59;5025978;28;1442;-33
2022/03/26 00:44:28;;;;;;;;;;;;;;;17.47;55.23;102119.34;5026450;28;1661;-32
2022/03/26 00:46:55;;;;;;;;;;;;;;;17.46;55.29;102113.09;5017961;28;1739;-32
2022/03/26 00:49:22;;;;;;;;;;;;;;;17.49;55.29;102128.97;5025598;28;1072;-32
2022/03/26 00:51:51;;;;;;;;;;;;;;;17.46;54.71;102118.44;5030150;28;1969;-32
2022/03/26 00:54:17;;;;;;;;;;;;;;;17.46;54.68;102129.16;5032983;28;1708;-32
2022/03/26 00:56:47;;;;;;;;;;;;;;;17.48;55.60;102121.91;5016774;28;2015;-32
2022/03/26 00:59:14;;;;;;;;;;;;;;;17.45;55.17;102122.09;5033557;28;1534;-33
2022/03/26 01:01:41;;;;;;;;;;;;;;;17.48;55.59;102132.59;5023922;28;1626;-33
2022/03/26 01:04:09;;;;;;;;;;;;;;;17.44;55.53;102125.72;5019812;28;2039;-32
2022/03/26 01:06:38;;;;;;;;;;;;;;;17.47;55.09;102128.22;5019773;28;1790;-32
2022/03/26 01:09:07;;;;;;;;;;;;;;;17.43;55.51;102133.84;5017260;28;1788;-32
2022/03/26 01:11:34;;;;;;;;;;;;;;;17.38;55.40;102120.72;5016190;28;1910;-33
2022/03/26 01:14:05;;;;;;;;;;;;;;;17.44;55.39;102132.88;5022576;28;1019;-32
2022/03/26 01:16:35;;;;;;;;;;;;;;;17.41;54.42;102136.59;5026643;28;1543;-32
2022/03/26 01:19:02;;;;;;;;;;;;;;;17.43;55.37;102141.88;5029191;28;1989;-33
2022/03/26 01:21:29;;;;;;;;;;;;;;;17.39;55.28;102148.31;5027521;28;1634;-33
2022/03/26 01:23:57;;;;;;;;;;;;;;;17.40;55.50;102155.41;5034430;28;1957;-33
2022/03/26 01:26:25;;;;;;;;;;;;;;;17.34;56.24;102145.94;5031075;28;992;-33
2022/03/26 01:28:55;;;;;;;;;;;;;;;17.36;56.44;102146.69;5023196;28;1103;-33
2022/03/26 01:31:25;;;;;;;;;;;;;;;17.37;56.19;102148.44;5028835;28;1986;-33
2022/03/26 01:33:52;;;;;;;;;;;;;;;17.39;55.78;102153.66;5021684;28;1981;-33
2022/03/26 01:36:22;;;;;;;;;;;;;;;17.35;56.00;102141.44;5021249;28;1840;-33
2022/03/26 01:38:49;;;;;;;;;;;;;;;17.35;54.95;102150.34;5016154;28;1237;-33
2022/03/26 01:41:15;;;;;;;;;;;;;;;17.34;56.10;102161.13;5020148;28;1075;-33
2022/03/26 01:43:46;;;;;;;;;;;;;;;17.34;55.34;102159.28;5030189;28;1607;-33
2022/03/26 01:46:12;;;;;;;;;;;;;;;17.35;54.95;102161.03;5024253;28;1760;-33
2022/03/26 01:48:42;;;;;;;;;;;;;;;17.35;54.88;102163.72;5034396;28;1971;-33
2022/03/26 01:51:15;;;;;;;;;;;;;;;17.29;56.03;102164.94;5029162;28;1279;-34
2022/03/26 01:53:53;;;;;;;;;;;;;;;17.32;54.77;102177.25;5021467;28;1906;-33
2022/03/26 01:56:20;;;;;;;;;;;;;;;17.29;55.23;102164.06;5034615;28;1870;-33
2022/03/26 01:58:50;;;;;;;;;;;;;;;17.28;55.58;102163.19;5032883;28;1653;-33
2022/03/26 02:01:17;;;;;;;;;;;;;;;17.29;56.05;102170.28;5028824;28;1820;-33
2022/03/26 02:03:51;;;;;;;;;;;;;;;17.26;56.51;102164.25;5031000;28;1895;-33
2022/03/26 02:06:19;;;;;;;;;;;;;;;17.26;56.38;102182.94;5017097;28;1845;-33
2022/03/26 02:08:45;;;;;;;;;;;;;;;17.25;55.73;102175.91;5032716;28;1570;-33
2022/03/26 02:11:14;;;;;;;;;;;;;;;17.28;56.26;102167.69;5031144;28;1587;-33
2022/03/26 02:13:54;;;;;;;;;;;;;;;17.31;56.17;102183.56;5025876;28;1932;-33
2022/03/26 02:16:21;;;;;;;;;;;;;;;17.28;55.89;102173.03;5031186;28;1815;-33
2022/03/26 02:19:03;;;;;;;;;;;;;;;17.27;56.23;102179.34;5024301;28;1771;-33
2022/03/26 02:21:35;;;;;;;;;;;;;;;17.31;55.32;102186.22;5015489;28;1848;-33
2022/03/26 02:24:05;;;;;;;;;;;;;;;17.27;55.62;102190.03;5023132;28;1938;-33
2022/03/26 02:26:36;;;;;;;;;;;;;;;17.27;55.17;102184.69;5033240;28;1616;-33
2022/03/26 02:34:30;;;;;;;;;;;;;;;17.24;55.42;102188.38;5023023;28;1710;-33
2022/03/26 02:37:02;;;;;;;;;;;;;;;17.20;56.55;102180.63;5023558;28;1778;-32
2022/03/26 02:39:29;;;;;;;;;;;;;;;17.22;54.95;102190.28;5029066;28;1681;-32
2022/03/26 02:42:03;;;;;;;;;;;;;;;17.20;54.98;102184.16;5021348;28;1688;-32
2022/03/26 02:44:32;;;;;;;;;;;;;;;17.18;56.35;102188.75;5020603;28;1797;-32
2022/03/26 02:47:07;;;;;;;;;;;;;;;17.18;55.84;102190.56;5028437;28;1841;-32
2022/03/26 02:49:35;;;;;;;;;;;;;;;17.18;56.26;102187.88;5032491;28;1685;-32
2022/03/26 02:52:03;;;;;;;;;;;;;;;17.16;57.01;102184.44;5016419;28;1977;-32
2022/03/26 02:54:30;;;;;;;;;;;;;;;17.19;55.45;102192.28;5016867;28;1928;-32
2022/03/26 02:57:00;;;;;;;;;;;;;;;17.17;55.72;102192.38;5029058;28;1643;-32
2022/03/26 02:59:29;;;;;;;;;;;;;;;17.18;56.26;102203.94;5029696;28;1519;-32
2022/03/26 03:01:55;;;;;;;;;;;;;;;17.16;55.88;102195.13;5135156;22;3916;-33
2022/03/26 03:04:22;;;;;;;;;;;;;;;17.18;56.30;102206.59;5024253;28;2008;-34
2022/03/26 03:06:48;;;;;;;;;;;;;;;17.13;55.44;102200.66;5029433;28;1819;-35
2022/03/26 03:09:17;;;;;;;;;;;;;;;17.15;55.81;102204.97;5021562;28;1621;-34
2022/03/26 03:11:44;;;;;;;;;;;;;;;17.15;56.10;102198.75;5023664;28;1454;-34
2022/03/26 03:14:11;;;;;;;;;;;;;;;17.14;55.99;102195.22;5022063;28;1910;-35
2022/03/26 03:16:37;;;;;;;;;;;;;;;17.13;55.88;102211.34;5022501;28;1082;-34
2022/03/26 03:19:04;;;;;;;;;;;;;;;17.12;55.88;102209.63;5021469;28;1761;-35
2022/03/26 03:21:30;;;;;;;;;;;;;;;17.07;56.55;102200.06;5027279;28;1776;-34
2022/03/26 03:23:57;;;;;;;;;;;;;;;17.10;56.33;102191.00;5021265;28;1616;-35
2022/03/26 03:26:25;;;;;;;;;;;;;;;17.09;56.82;102211.53;5022880;28;1009;-34
2022/03/26 03:28:51;;;;;;;;;;;;;;;17.09;55.92;102214.19;5024982;28;1777;-34
2022/03/26 03:31:18;;;;;;;;;;;;;;;17.07;56.11;102213.44;5025140;28;2047;-35
2022/03/26 03:33:44;;;;;;;;;;;;;;;17.07;56.75;102201.88;5019493;28;1919;-34
2022/03/26 03:36:11;;;;;;;;;;;;;;;17.08;55.77;102216.97;5028993;28;1714;-35
2022/03/26 03:38:37;;;;;;;;;;;;;;;17.12;56.51;102221.19;5022612;28;1086;-34
2022/03/26 03:41:04;;;;;;;;;;;;;;;17.08;56.29;102212.47;5027478;28;2044;-35
2022/03/26 03:43:31;;;;;;;;;;;;;;;17.08;55.72;102204.44;5027838;28;1929;-35
2022/03/26 03:45:58;;;;;;;;;;;;;;;17.05;56.42;102204.63;5022841;28;1573;-34
2022/03/26 03:48:24;;;;;;;;;;;;;;;17.08;56.30;102216.97;5029223;28;1913;-35
2022/03/26 03:50:51;;;;;;;;;;;;;;;17.07;54.99;102221.44;5026925;28;1714;-34
2022/03/26 03:53:17;;;;;;;;;;;;;;;17.03;55.84;102216.34;5035550;28;1971;-35
2022/03/26 03:55:44;;;;;;;;;;;;;;;17.04;56.11;102212.72;5026390;28;1880;-35
2022/03/26 03:58:10;;;;;;;;;;;;;;;17.01;55.46;102213.78;5032209;28;2228;-34
2022/03/26 04:00:38;;;;;;;;;;;;;;;17.02;56.74;102226.19;5020778;28;1654;-35
2022/03/26 04:03:05;;;;;;;;;;;;;;;17.02;56.09;102220.84;5029447;28;1581;-35
2022/03/26 04:05:31;;;;;;;;;;;;;;;17.02;56.08;102219.97;5029315;28;1971;-35
2022/03/26 04:07:58;;;;;;;;;;;;;;;16.98;56.12;102221.97;5027902;28;1666;-35
2022/03/26 04:10:24;;;;;;;;;;;;;;;17.00;56.80;102236.09;5027922;28;1559;-35
2022/03/26 04:12:51;;;;;;;;;;;;;;;16.98;56.49;102226.44;5026837;28;1906;-35
2022/03/26 04:15:17;;;;;;;;;;;;;;;16.97;56.75;102222.03;5022495;28;1599;-35
2022/03/26 04:17:45;;;;;;;;;;;;;;;16.97;55.88;102225.59;5023901;28;1846;-35
2022/03/26 04:20:12;;;;;;;;;;;;;;;16.98;56.91;102246.00;5032346;28;1545;-35
2022/03/26 04:22:39;;;;;;;;;;;;;;;16.96;55.76;102231.88;5025985;28;1090;-35
2022/03/26 04:25:07;;;;;;;;;;;;;;;16.95;56.30;102240.84;5031791;28;1760;-35
2022/03/26 04:27:33;;;;;;;;;;;;;;;16.96;56.35;102236.38;5027992;28;1604;-35
2022/03/26 04:30:00;;;;;;;;;;;;;;;16.98;56.75;102229.97;5027192;28;1866;-35
2022/03/26 04:32:26;;;;;;;;;;;;;;;16.96;56.28;102241.72;5031814;28;1910;-35
2022/03/26 04:34:55;;;;;;;;;;;;;;;16.96;55.72;102236.38;5025720;28;2052;-35
2022/03/26 04:37:21;;;;;;;;;;;;;;;16.94;55.52;102228.44;5026284;28;1856;-34
2022/03/26 04:39:48;;;;;;;;;;;;;;;16.99;56.04;102228.16;5027657;28;1590;-35
2022/03/26 04:42:14;;;;;;;;;;;;;;;16.99;54.89;102226.38;5023467;28;1558;-35
2022/03/26 04:44:41;;;;;;;;;;;;;;;16.99;55.56;102231.72;5028306;28;1780;-35
2022/03/26 04:47:08;;;;;;;;;;;;;;;16.99;56.72;102237.06;5026129;28;1771;-35
2022/03/26 04:49:34;;;;;;;;;;;;;;;17.01;55.94;102248.53;5026504;28;1602;-36
2022/03/26 04:52:02;;;;;;;;;;;;;;;17.00;54.94;102233.41;5027568;28;1054;-35
2022/03/26 04:54:28;;;;;;;;;;;;;;;16.98;55.42;102242.47;5022510;28;2064;-35
2022/03/26 04:56:55;;;;;;;;;;;;;;;16.95;55.52;102230.16;5025306;28;1575;-35
2022/03/26 04:59:21;;;;;;;;;;;;;;;16.99;55.83;102242.41;5029783;28;1536;-35
2022/03/26 05:01:48;;;;;;;;;;;;;;;16.97;56.12;102232.72;5024437;28;1598;-36
2022/03/26 05:04:17;;;;;;;;;;;;;;;16.95;55.07;102235.50;5024515;28;1089;-35
2022/03/26 05:06:43;;;;;;;;;;;;;;;16.95;56.25;102234.63;5023924;28;1738;-35
2022/03/26 05:09:11;;;;;;;;;;;;;;;16.95;55.22;102230.16;5033614;28;1928;-35
2022/03/26 05:11:38;;;;;;;;;;;;;;;16.96;55.83;102239.88;5021386;28;1730;-35
2022/03/26 05:14:04;;;;;;;;;;;;;;;16.97;55.62;102228.28;5026657;28;1898;-35
2022/03/26 05:16:31;;;;;;;;;;;;;;;16.99;55.77;102241.53;5023564;28;1599;-35
2022/03/26 05:18:57;;;;;;;;;;;;;;;16.97;56.12;102236.28;5023433;28;1635;-32
2022/03/26 05:21:24;;;;;;;;;;;;;;;16.96;54.83;102242.56;5029381;28;1937;-32
2022/03/26 05:23:51;;;;;;;;;;;;;;;16.96;55.69;102239.03;5018865;28;1618;-33
2022/03/26 05:26:22;;;;;;;;;;;;;;;16.95;55.73;102240.84;5022573;28;1403;-32
2022/03/26 05:28:49;;;;;;;;;;;;;;;16.94;54.17;102232.91;5028759;28;1999;-32
2022/03/26 05:31:15;;;;;;;;;;;;;;;16.96;55.49;102233.69;5029338;28;1850;-33
2022/03/26 05:33:42;;;;;;;;;;;;;;;16.97;54.68;102241.63;5028988;28;1902;-32
2022/03/26 05:36:08;;;;;;;;;;;;;;;16.96;54.17;102239.88;5019645;28;1284;-32
2022/03/26 05:38:35;;;;;;;;;;;;;;;17.01;54.20;102237.84;5026602;28;1060;-32
2022/03/26 05:41:01;;;;;;;;;;;;;;;17.02;54.33;102239.53;5020323;28;2142;-32
2022/03/26 05:43:29;;;;;;;;;;;;;;;17.06;55.81;102254.44;5029100;28;1921;-32
2022/03/26 05:45:55;;;;;;;;;;;;;;;17.07;55.68;102229.47;5024480;28;1630;-32
2022/03/26 05:48:22;;;;;;;;;;;;;;;17.10;55.01;102237.28;5022706;28;1821;-32
2022/03/26 05:50:48;;;;;;;;;;;;;;;17.17;55.77;102242.28;5024203;28;1536;-32
2022/03/26 05:53:15;;;;;;;;;;;;;;;17.20;56.08;102252.81;5032974;28;1906;-32
2022/03/26 05:55:41;;;;;;;;;;;;;;;17.25;55.90;102237.38;5031863;28;1763;-32
2022/03/26 05:58:08;;;;;;;;;;;;;;;17.30;55.67;102243.31;5024081;28;1623;-32
2022/03/26 06:00:37;;;;;;;;;;;;;;;17.29;55.56;102244.28;5024258;28;1622;-33
2022/03/26 06:03:03;;;;;;;;;;;;;;;17.26;55.50;102233.75;5024409;28;1627;-32
2022/03/26 06:05:30;;;;;;;;;;;;;;;17.41;55.65;102242.72;5024427;28;1642;-32
2022/03/26 06:07:57;;;;;;;;;;;;;;;17.49;55.88;102249.31;5026427;28;1077;-32
2022/03/26 06:10:23;;;;;;;;;;;;;;;17.87;54.81;102245.38;5027882;28;1605;-32
2022/03/26 06:12:50;;;;;;;;;;;;;;;18.20;54.50;102241.59;5024125;28;1708;-32
2022/03/26 06:15:16;;;;;;;;;;;;;;;18.20;54.74;102241.59;5024021;28;1960;-32
2022/03/26 06:17:45;;;;;;;;;;;;;;;18.61;53.73;102233.66;5031699;28;1782;-32
2022/03/26 06:20:12;;;;;;;;;;;;;;;18.81;53.37;102231.56;5022130;28;1862;-32
2022/03/26 06:22:38;;;;;;;;;;;;;;;18.98;53.05;102231.34;5023488;28;1082;-32
2022/03/26 06:25:05;;;;;;;;;;;;;;;19.44;51.96;102236.34;5026253;28;1781;-32
2022/03/26 06:27:32;;;;;;;;;;;;;;;19.30;52.95;102233.72;5021847;28;1806;-33
2022/03/26 06:29:58;;;;;;;;;;;;;;;19.41;52.95;102241.91;5025376;28;1790;-32
2022/03/26 06:32:25;;;;;;;;;;;;;;;19.51;53.20;102242.16;5025316;28;1720;-33
2022/03/26 06:34:53;;;;;;;;;;;;;;;19.50;53.67;102240.44;5032539;28;1906;-32
2022/03/26 06:37:21;;;;;;;;;;;;;;;19.59;54.54;102250.53;5028111;28;1775;-32
2022/03/26 06:39:47;;;;;;;;;;;;;;;19.74;56.04;102237.97;5029135;28;1470;-32
2022/03/26 06:42:13;;;;;;;;;;;;;;;20.07;55.69;102236.59;5025837;28;1578;-32
2022/03/26 06:44:40;;;;;;;;;;;;;;;19.75;55.82;102239.66;5025684;28;1681;-33
2022/03/26 06:47:07;;;;;;;;;;;;;;;19.69;56.76;102240.03;5034071;28;1768;-32
2022/03/26 06:49:34;;;;;;;;;;;;;;;19.77;58.16;102242.25;5029173;28;1732;-32
2022/03/26 06:52:02;;;;;;;;;;;;;;;19.90;57.07;102240.44;5024804;28;1629;-32
2022/03/26 06:54:28;;;;;;;;;;;;;;;20.17;60.02;102240.34;5027666;28;1906;-32
2022/03/26 06:56:55;;;;;;;;;;;;;;;19.98;59.61;102238.09;5022345;28;1434;-32
2022/03/26 06:59:23;;;;;;;;;;;;;;;20.12;59.77;102245.19;5023248;28;1822;-33
2022/03/26 07:01:49;;;;;;;;;;;;;;;20.26;61.92;102255.81;5022260;28;1749;-33
2022/03/26 07:04:16;;;;;;;;;;;;;;;20.31;60.42;102250.13;5022150;28;1150;-32
2022/03/26 07:06:42;;;;;;;;;;;;;;;20.36;59.37;102249.81;5021659;28;1884;-35
2022/03/26 07:09:10;;;;;;;;;;;;;;;20.38;60.70;102264.00;5031369;28;1977;-35
2022/03/26 07:11:37;;;;;;;;;;;;;;;20.65;60.03;102237.88;5028545;28;1613;-35
2022/03/26 07:14:03;;;;;;;;;;;;;;;20.71;57.76;102252.72;5028577;28;1979;-35
2022/03/26 07:16:30;;;;;;;;;;;;;;;20.37;60.24;102251.50;5028088;28;1955;-35
2022/03/26 07:18:56;;;;;;;;;;;;;;;20.32;60.97;102256.38;5028239;28;1893;-36
2022/03/26 07:21:23;;;;;;;;;;;;;;;20.20;59.88;102242.81;5027996;28;1921;-35
2022/03/26 07:23:49;;;;;;;;;;;;;;;20.06;60.13;102254.53;5013415;28;991;-36
2022/03/26 07:26:17;;;;;;;;;;;;;;;19.97;58.97;102247.09;5020856;28;1744;-35
2022/03/26 07:28:44;;;;;;;;;;;;;;;19.86;60.05;102247.84;5026683;28;1757;-36
2022/03/26 07:31:10;;;;;;;;;;;;;;;19.65;59.59;102244.75;5028529;28;1614;-36
2022/03/26 07:33:36;;;;;;;;;;;;;;;19.47;60.01;102233.44;5022941;28;1906;-37
2022/03/26 07:36:03;;;;;;;;;;;;;;;19.42;61.08;102243.63;5026930;28;1725;-36
2022/03/26 07:38:29;;;;;;;;;;;;;;;19.26;61.44;102227.69;5027378;28;1701;-35
2022/03/26 07:40:57;;;;;;;;;;;;;;;19.30;61.12;102232.84;5029246;28;1863;-35
2022/03/26 07:43:24;;;;;;;;;;;;;;;19.15;61.21;102226.69;5028545;28;1898;-36
2022/03/26 07:45:51;;;;;;;;;;;;;;;19.12;62.33;102235.81;5022721;28;1580;-36
2022/03/26 07:48:17;;;;;;;;;;;;;;;19.10;62.16;102236.84;5026934;28;1862;-36
2022/03/26 07:50:44;;;;;;;;;;;;;;;19.16;61.67;102229.28;5022723;28;1727;-35
2022/03/26 07:53:11;;;;;;;;;;;;;;;19.12;61.96;102237.59;5034960;28;1787;-37
2022/03/26 07:55:37;;;;;;;;;;;;;;;19.14;62.25;102254.44;5024720;28;1914;-36
2022/03/26 07:58:04;;;;;;;;;;;;;;;19.07;61.65;102238.75;5025975;28;1879;-36
2022/03/26 08:00:32;;;;;;;;;;;;;;;19.11;61.76;102239.44;5022530;28;1769;-36
2022/03/26 08:02:58;;;;;;;;;;;;;;;18.98;61.78;102239.38;5026440;28;1636;-36
2022/03/26 08:05:25;;;;;;;;;;;;;;;18.95;61.35;102228.84;5022337;28;1809;-36
2022/03/26 08:07:51;;;;;;;;;;;;;;;18.87;61.88;102239.19;5023952;28;1857;-37
2022/03/26 08:10:21;;;;;;;;;;;;;;;18.77;61.78;102241.56;5031580;28;1943;-36
2022/03/26 08:12:48;;;;;;;;;;;;;;;18.73;61.17;102225.81;5029378;28;1728;-36
2022/03/26 08:15:14;;;;;;;;;;;;;;;18.76;61.44;102228.28;5018606;28;1907;-36
2022/03/26 08:17:42;;;;;;;;;;;;;;;18.77;60.83;102235.38;5027202;28;1737;-36
2022/03/26 08:20:09;;;;;;;;;;;;;;;18.74;60.79;102225.72;5024124;28;1895;-36
2022/03/26 08:22:36;;;;;;;;;;;;;;;18.75;61.10;102215.84;5021836;28;1020;-36
2022/03/26 08:25:02;;;;;;;;;;;;;;;18.69;61.46;102217.94;5018564;28;1609;-36
2022/03/26 08:27:29;;;;;;;;;;;;;;;18.68;61.20;102218.91;5022837;28;1784;-36
2022/03/26 08:29:55;;;;;;;;;;;;;;;18.69;61.05;102217.09;5027644;28;1742;-36
2022/03/26 08:32:21;;;;;;;;;;;;;;;18.64;60.87;102217.41;5032121;28;1876;-36
2022/03/26 08:34:50;;;;;;;;;;;;;;;18.62;61.47;102208.59;5025266;28;1981;-37
2022/03/26 08:37:16;;;;;;;;;;;;;;;18.62;61.37;102213.97;5022366;28;1677;-36
2022/03/26 08:39:43;;;;;;;;;;;;;;;18.63;61.17;102220.16;5029112;28;1507;-36
2022/03/26 08:42:09;;;;;;;;;;;;;;;18.60;61.51;102207.84;5028282;28;1448;-36
2022/03/26 08:44:36;;;;;;;;;;;;;;;18.58;61.25;102204.41;5024654;28;1586;-37
2022/03/26 08:47:05;;;;;;;;;;;;;;;18.58;60.55;102193.69;5026098;28;1542;-37
2022/03/26 08:49:32;;;;;;;;;;;;;;;18.60;60.92;102207.84;5025242;28;1476;-37
2022/03/26 08:52:00;;;;;;;;;;;;;;;18.57;61.29;102196.44;5027031;28;1570;-36
2022/03/26 08:54:26;;;;;;;;;;;;;;;18.55;60.65;102195.69;5029214;28;1910;-36
2022/03/26 08:56:53;;;;;;;;;;;;;;;18.53;60.76;102190.41;5025983;28;1560;-36
2022/03/26 08:59:22;;;;;;;;;;;;;;;18.46;61.23;102168.53;5025578;28;1637;-36
2022/03/26 09:01:48;;;;;;;;;;;;;;;18.50;60.82;102179.88;5024583;28;1637;-37
2022/03/26 09:04:15;;;;;;;;;;;;;;;18.51;61.36;102170.06;5027790;28;1058;-36
2022/03/26 09:06:41;;;;;;;;;;;;;;;18.48;60.91;102166.63;5027058;28;1663;-36
2022/03/26 09:09:09;;;;;;;;;;;;;;;18.47;60.60;102169.38;5016909;28;1534;-36
2022/03/26 09:11:36;;;;;;;;;;;;;;;18.49;60.86;102179.03;5025121;28;1768;-37
2022/03/26 09:14:02;;;;;;;;;;;;;;;18.44;60.82;102170.44;5026950;28;1903;-37
2022/03/26 09:16:30;;;;;;;;;;;;;;;18.44;60.91;102159.75;5016775;28;1773;-37
2022/03/26 09:18:57;;;;;;;;;;;;;;;18.46;60.16;102167.66;5023042;28;1675;-36
2022/03/26 09:21:23;;;;;;;;;;;;;;;18.45;60.73;102160.59;5022811;28;1668;-36
2022/03/26 09:23:50;;;;;;;;;;;;;;;18.43;60.45;102157.16;5024725;28;1125;-36
2022/03/26 09:26:17;;;;;;;;;;;;;;;18.40;60.46;102154.66;5020717;28;1964;-36
2022/03/26 09:28:45;;;;;;;;;;;;;;;18.41;60.32;102159.06;5024774;28;1638;-36
2022/03/26 09:31:11;;;;;;;;;;;;;;;18.45;60.44;102152.56;5027867;28;1597;-36
2022/03/26 09:33:38;;;;;;;;;;;;;;;18.42;60.34;102158.09;5023180;28;1741;-36
2022/03/26 09:36:04;;;;;;;;;;;;;;;18.38;60.35;102141.38;5026181;28;1906;-36
2022/03/26 09:38:31;;;;;;;;;;;;;;;18.38;60.42;102143.19;5023660;28;1085;-36
2022/03/26 09:40:58;;;;;;;;;;;;;;;18.39;60.52;102136.88;5026386;28;1816;-37
2022/03/26 09:43:29;;;;;;;;;;;;;;;18.38;60.03;102144.06;5031386;28;1901;-36
2022/03/26 09:45:57;;;;;;;;;;;;;;;18.35;60.58;102132.69;5029398;28;1431;-36
2022/03/26 09:48:26;;;;;;;;;;;;;;;18.37;60.13;102142.31;5027625;28;1813;-36
2022/03/26 09:50:59;;;;;;;;;;;;;;;18.35;60.53;102140.72;5027138;28;1727;-36
2022/03/26 09:53:27;;;;;;;;;;;;;;;18.33;59.84;102131.91;5035157;28;1050;-36
2022/03/26 09:55:57;;;;;;;;;;;;;;;18.33;59.82;102129.25;5024621;28;1977;-36
2022/03/26 09:58:23;;;;;;;;;;;;;;;18.32;59.84;102123.00;5023839;28;1667;-36
2022/03/26 10:00:53;;;;;;;;;;;;;;;18.32;60.51;102122.16;5023681;28;1622;-36
2022/03/26 10:03:24;;;;;;;;;;;;;;;18.30;60.23;102116.88;5029082;28;1722;-37
2022/03/26 10:06:01;;;;;;;;;;;;;;;18.30;59.15;102124.91;5029448;28;1635;-36
2022/03/26 10:08:29;;;;;;;;;;;;;;;18.25;59.88;102111.81;5030551;28;1629;-36
2022/03/26 10:10:57;;;;;;;;;;;;;;;18.28;60.13;102110.75;5033733;28;1800;-37
2022/03/26 10:13:36;;;;;;;;;;;;;;;18.25;59.92;102095.75;5032572;28;1827;-36
2022/03/26 10:16:07;;;;;;;;;;;;;;;18.28;59.96;102106.28;5023318;28;2029;-36
2022/03/26 10:18:41;;;;;;;;;;;;;;;18.25;59.85;102102.94;5030143;28;1626;-36
2022/03/26 10:21:09;;;;;;;;;;;;;;;18.28;59.90;102111.66;5020336;28;1280;-36
2022/03/26 10:23:37;;;;;;;;;;;;;;;18.28;60.23;102100.94;5025877;28;1446;-36
2022/03/26 10:26:28;;;;;;;;;;;;;;;18.29;59.66;102102.63;5031208;28;1462;-36
2022/03/26 10:28:56;;;;;;;;;;;;;;;18.26;59.95;102097.50;5030083;28;1215;-36
2022/03/26 10:34:19;;;;;;;;;;;;;;;18.27;59.58;102098.34;5015415;28;922;-36
2022/03/26 10:36:50;;;;;;;;;;;;;;;18.24;59.85;102088.72;5006211;28;1673;-36
2022/03/26 10:39:20;;;;;;;;;;;;;;;18.26;59.59;102092.13;5032794;28;1947;-36
2022/03/26 10:41:49;;;;;;;;;;;;;;;18.24;59.57;102094.06;5028157;28;1507;-36
2022/03/26 10:44:16;;;;;;;;;;;;;;;18.25;59.46;102090.41;5019909;28;1598;-36
2022/03/26 10:47:00;;;;;;;;;;;;;;;18.22;59.29;102079.03;5030944;28;1549;-36
2022/03/26 10:52:12;;;;;;;;;;;;;;;18.23;59.43;102067.38;5013951;28;1590;-36
2022/03/26 10:54:42;;;;;;;;;;;;;;;18.22;59.36;102058.50;5014035;28;1988;-36
2022/03/26 10:57:10;;;;;;;;;;;;;;;18.21;59.56;102062.09;5031203;28;1817;-36
2022/03/26 10:59:46;;;;;;;;;;;;;;;18.22;59.29;102063.84;5018101;28;1545;-36
2022/03/26 11:02:16;;;;;;;;;;;;;;;18.20;59.46;102063.06;5029748;28;1382;-37
2022/03/26 11:04:46;;;;;;;;;;;;;;;18.25;59.55;102058.28;5018812;28;1564;-36
2022/03/26 11:07:12;;;;;;;;;;;;;;;18.22;59.49;102047.78;5023243;28;1084;-37
2022/03/26 11:09:40;;;;;;;;;;;;;;;18.23;59.19;102044.13;5026489;28;1533;-36
2022/03/26 11:12:08;;;;;;;;;;;;;;;18.20;59.57;102049.66;5030259;28;1617;-36
2022/03/26 11:14:39;;;;;;;;;;;;;;;18.18;59.23;102024.81;5013602;28;1972;-36
2022/03/26 11:17:29;;;;;;;;;;;;;;;18.21;59.54;102029.97;5020390;28;1878;-36
2022/03/26 11:20:10;;;;;;;;;;;;;;;18.20;59.02;102027.41;5026454;28;1835;-35
2022/03/26 11:22:49;;;;;;;;;;;;;;;18.19;59.21;102023.88;5025260;28;1780;-36
2022/03/26 11:25:41;;;;;;;;;;;;;;;18.18;59.19;102019.47;5031425;28;1894;-36
2022/03/26 11:28:19;;;;;;;;;;;;;;;18.17;59.42;102015.06;5005882;28;2027;-36
2022/03/26 11:31:03;;;;;;;;;;;;;;;18.17;59.24;101992.81;5028272;28;1706;-36
2022/03/26 11:33:37;;;;;;;;;;;;;;;18.18;59.21;102003.38;5028352;28;1478;-36
2022/03/26 11:36:20;;;;;;;;;;;;;;;18.15;59.58;102003.59;5016439;28;1903;-37
2022/03/26 11:38:57;;;;;;;;;;;;;;;18.14;59.69;101991.16;5022103;28;1083;-36
2022/03/26 11:41:41;;;;;;;;;;;;;;;18.16;58.81;101988.41;5032118;28;1075;-37
2022/03/26 11:52:24;;;;;;;;;;;;;;;18.19;58.92;101972.16;5020174;28;675;-37
2022/03/26 11:54:57;;;;;;;;;;;;;;;18.16;59.30;101962.47;5026121;28;1914;-36
2022/03/26 11:57:26;;;;;;;;;;;;;;;18.19;58.78;101966.78;5023559;28;1477;-36
2022/03/26 12:00:03;;;;;;;;;;;;;;;18.13;59.06;101957.34;5022218;28;1618;-36
2022/03/26 12:02:39;;;;;;;;;;;;;;;18.16;58.54;101943.75;5032270;28;1862;-36
2022/03/26 12:07:51;;;;;;;;;;;;;;;18.19;58.56;101940.03;5029147;28;1564;-36
2022/03/26 12:10:19;;;;;;;;;;;;;;;18.21;58.58;101933.59;5029650;28;2069;-36
2022/03/26 12:13:06;;;;;;;;;;;;;;;18.33;58.20;101926.56;5030025;28;1589;-36
2022/03/26 12:15:34;;;;;;;;;;;;;;;18.32;58.12;101923.97;5030884;28;1910;-36
2022/03/26 12:18:14;;;;;;;;;;;;;;;18.14;58.24;101908.19;5028762;28;1745;-36
2022/03/26 12:20:49;;;;;;;;;;;;;;;17.97;57.39;101909.31;5024940;28;1671;-36
2022/03/26 12:23:25;;;;;;;;;;;;;;;17.83;56.85;101912.88;5036292;28;1909;-36
2022/03/26 12:25:54;;;;;;;;;;;;;;;17.72;52.47;101895.78;5021670;28;1712;-36
2022/03/26 12:28:32;;;;;;;;;;;;;;;17.66;52.14;101899.72;5023369;28;1765;-36
2022/03/26 12:31:08;;;;;;;;;;;;;;;17.64;50.35;101896.28;5029630;28;1735;-36
2022/03/26 12:33:44;;;;;;;;;;;;;;;17.64;52.02;101888.25;5034541;28;1662;-36
2022/03/26 12:36:13;;;;;;;;;;;;;;;17.66;50.97;101878.31;5033417;28;1971;-36
2022/03/26 12:38:46;;;;;;;;;;;;;;;17.62;49.56;101876.78;5027710;28;1647;-36
2022/03/26 12:41:15;;;;;;;;;;;;;;;17.59;50.89;101866.31;5031123;28;1578;-36
2022/03/26 12:43:44;;;;;;;;;;;;;;;17.69;49.61;101867.41;5022615;28;1812;-36
2022/03/26 12:46:13;;;;;;;;;;;;;;;17.57;45.46;101865.56;5028029;28;1785;-36
2022/03/26 12:48:40;;;;;;;;;;;;;;;17.53;44.91;101855.97;5028648;28;1511;-36
2022/03/26 12:51:07;;;;;;;;;;;;;;;17.47;47.68;101846.56;5027340;28;1717;-37
2022/03/26 12:53:37;;;;;;;;;;;;;;;17.54;44.39;101860.38;5032695;28;1694;-36
2022/03/26 12:56:16;;;;;;;;;;;;;;;17.48;44.36;101858.97;5030316;28;1973;-37
2022/03/26 12:59:01;;;;;;;;;;;;;;;17.52;42.88;101839.06;5034159;28;1870;-37
2022/03/26 13:01:29;;;;;;;;;;;;;;;17.45;42.53;101841.31;5019461;28;1943;-36
2022/03/26 13:03:59;;;;;;;;;;;;;;;17.59;44.71;101832.38;5022739;28;1990;-37
2022/03/26 13:06:33;;;;;;;;;;;;;;;17.39;41.81;101828.34;5024091;28;2046;-36
2022/03/26 13:09:09;;;;;;;;;;;;;;;17.34;41.46;101830.44;5033408;28;1742;-36
2022/03/26 13:11:40;;;;;;;;;;;;;;;17.32;40.41;101835.03;5032523;28;2007;-36
2022/03/26 13:14:13;;;;;;;;;;;;;;;17.34;43.31;101821.56;5031670;28;1723;-36
2022/03/26 13:16:42;;;;;;;;;;;;;;;17.59;44.57;101826.19;5029032;28;1969;-36
2022/03/26 13:19:23;;;;;;;;;;;;;;;17.79;43.81;101814.16;5026754;28;1956;-36